Time;durP1;ratioP1;P1;durP2;ratioP2;P2;SDS_P1;SDS_P2;PMS_P1;PMS_P2;Temp;Humidity;BMP_temperature;BMP_pressure;BME280_temperature;BME280_humidity;BME280_pressure;Samples;Min_cycle;Max_cycle;Signal;HPM_P1;HPM_P2
2021/11/07 00:00:30;;;;;;;1999.90;999.90;;;;;;;8.01;100.00;96596.56;5070400;28;20192;-67
2021/11/07 00:03:05;;;;;;;1999.90;999.90;;;;;;;7.95;100.00;96597.56;5070181;28;20736;-67
2021/11/07 00:05:33;;;;;;;1999.90;999.90;;;;;;;7.88;100.00;96597.75;5056324;28;20228;-67
2021/11/07 00:08:18;;;;;;;1999.90;999.90;;;;;;;7.81;100.00;96599.78;5046356;28;20233;-67
2021/11/07 00:10:48;;;;;;;1999.90;999.90;;;;;;;7.87;100.00;96600.63;5030177;28;20201;-67
2021/11/07 00:13:19;;;;;;;1999.90;999.90;;;;;;;7.87;100.00;96600.63;5050325;28;20192;-67
2021/11/07 00:15:46;;;;;;;1999.90;999.90;;;;;;;7.79;100.00;96604.44;5069960;28;20699;-67
2021/11/07 00:18:17;;;;;;;1999.90;999.90;;;;;;;7.81;100.00;96611.94;5070252;28;20200;-67
2021/11/07 00:20:58;;;;;;;1999.90;999.90;;;;;;;7.74;100.00;96612.16;5070142;28;20565;-67
2021/11/07 00:23:39;;;;;;;1999.90;999.90;;;;;;;7.82;100.00;96609.09;5069859;28;20177;-67
2021/11/07 00:26:14;;;;;;;1999.90;999.90;;;;;;;7.86;100.00;96609.41;5054323;28;20197;-67
2021/11/07 00:28:45;;;;;;;1999.90;999.90;;;;;;;7.80;100.00;96606.00;5049760;28;20622;-67
2021/11/07 00:31:21;;;;;;;1999.90;999.90;;;;;;;7.74;100.00;96594.81;5049833;28;20236;-67
2021/11/07 00:36:34;;;;;;;1999.90;999.90;;;;;;;7.82;100.00;96598.00;5048929;28;20208;-67
2021/11/07 00:39:10;;;;;;;1999.90;999.90;;;;;;;7.83;100.00;96597.72;5049649;28;20251;-67
2021/11/07 00:41:45;;;;;;;1999.90;999.90;;;;;;;7.68;100.00;96592.44;5049645;28;20189;-67
2021/11/07 00:44:14;;;;;;;1999.90;999.90;;;;;;;7.75;100.00;96591.22;5051908;28;20664;-67
2021/11/07 00:46:45;;;;;;;1999.90;999.90;;;;;;;7.85;100.00;96590.50;5053520;28;20675;-67
2021/11/07 00:49:17;;;;;;;1999.90;999.90;;;;;;;7.82;100.00;96592.81;5053574;28;20649;-67
2021/11/07 00:51:56;;;;;;;1999.90;999.90;;;;;;;7.87;100.00;96592.84;5053474;28;20641;-67
2021/11/07 00:54:28;;;;;;;1999.90;999.90;;;;;;;7.85;100.00;96587.13;5053026;28;20223;-67
2021/11/07 00:56:59;;;;;;;1999.90;999.90;;;;;;;7.91;100.00;96576.56;5053672;28;20185;-67
2021/11/07 00:59:37;;;;;;;1999.90;999.90;;;;;;;7.86;100.00;96580.94;5053359;28;20260;-67
2021/11/07 01:02:14;;;;;;;1999.90;999.90;;;;;;;7.89;100.00;96583.78;5064306;28;20193;-67
2021/11/07 01:04:45;;;;;;;1999.90;999.90;;;;;;;8.01;100.00;96586.22;5063614;28;20225;-67
2021/11/07 01:07:12;;;;;;;1999.90;999.90;;;;;;;7.92;100.00;96572.19;5052842;28;20582;-67
2021/11/07 01:09:40;;;;;;;1999.90;999.90;;;;;;;7.97;100.00;96574.81;5053048;28;20631;-67
2021/11/07 01:12:10;;;;;;;1999.90;999.90;;;;;;;7.98;100.00;96565.97;5053178;28;20250;-67
2021/11/07 01:14:41;;;;;;;1999.90;999.90;;;;;;;8.01;100.00;96555.16;5053311;28;20245;-67
2021/11/07 01:17:08;;;;;;;1999.90;999.90;;;;;;;8.03;100.00;96547.91;5053204;28;20274;-67
2021/11/07 01:19:36;;;;;;;1999.90;999.90;;;;;;;7.95;100.00;96549.16;5052833;28;20629;-67
2021/11/07 01:22:06;;;;;;;1999.90;999.90;;;;;;;7.97;100.00;96551.50;5053247;28;20207;-67
2021/11/07 01:24:35;;;;;;;1999.90;999.90;;;;;;;7.98;100.00;96558.22;5052818;28;20236;-67
2021/11/07 01:27:18;;;;;;;1999.90;999.90;;;;;;;7.94;100.00;96564.94;5053003;28;20205;-67
2021/11/07 01:29:49;;;;;;;1999.90;999.90;;;;;;;7.86;100.00;96555.06;5052739;28;20192;-67
2021/11/07 01:32:18;;;;;;;1999.90;999.90;;;;;;;7.90;100.00;96561.28;5052719;28;20181;-67
2021/11/07 01:34:55;;;;;;;1999.90;999.90;;;;;;;7.93;100.00;96555.59;5052878;28;20311;-67
2021/11/07 01:37:25;;;;;;;1999.90;999.90;;;;;;;7.84;100.00;96557.88;5052832;28;20294;-66
2021/11/07 01:39:57;;;;;;;1999.90;999.90;;;;;;;7.92;100.00;96551.47;5052535;28;20201;-67
2021/11/07 01:42:32;;;;;;;1999.90;999.90;;;;;;;7.98;100.00;96546.06;5052603;28;20740;-67
2021/11/07 01:45:04;;;;;;;1999.90;999.90;;;;;;;8.04;100.00;96544.28;5052483;28;20189;-67
2021/11/07 01:47:34;;;;;;;1999.90;999.90;;;;;;;7.95;100.00;96548.38;5052483;28;20196;-67
2021/11/07 01:50:01;;;;;;;1999.90;999.90;;;;;;;8.01;100.00;96550.75;5052753;28;20208;-67
2021/11/07 01:52:29;;;;;;;1999.90;999.90;;;;;;;8.10;100.00;96551.06;5052682;28;20255;-67
2021/11/07 01:54:58;;;;;;;1999.90;999.90;;;;;;;8.14;100.00;96547.72;5050927;28;20225;-68
2021/11/07 01:57:27;;;;;;;1999.90;999.90;;;;;;;8.18;100.00;96550.56;5052179;28;20665;-67
2021/11/07 01:59:58;;;;;;;1999.90;999.90;;;;;;;8.14;100.00;96546.94;5052224;28;20197;-67
2021/11/07 02:02:29;;;;;;;1999.90;999.90;;;;;;;8.08;100.00;96542.75;5066203;28;20605;-67
2021/11/07 02:04:57;;;;;;;1999.90;999.90;;;;;;;8.09;100.00;96539.91;5063285;28;20661;-67
2021/11/07 02:07:24;;;;;;;1999.90;999.90;;;;;;;8.11;100.00;96539.69;5051977;28;20735;-67
2021/11/07 02:09:52;;;;;;;1999.90;999.90;;;;;;;8.12;100.00;96542.00;5052356;28;20205;-67
2021/11/07 02:12:20;;;;;;;1999.90;999.90;;;;;;;8.11;100.00;96535.28;5051990;28;20200;-67
2021/11/07 02:14:47;;;;;;;1999.90;999.90;;;;;;;8.17;100.00;96538.66;5051799;28;20225;-66
2021/11/07 02:17:15;;;;;;;1999.90;999.90;;;;;;;8.27;100.00;96537.94;5051999;28;20193;-67
2021/11/07 02:19:46;;;;;;;1999.90;999.90;;;;;;;8.30;100.00;96538.25;5051931;28;20201;-67
2021/11/07 02:22:15;;;;;;;1999.90;999.90;;;;;;;8.25;100.00;96535.59;5052163;28;20259;-67
2021/11/07 02:24:42;;;;;;;1999.90;999.90;;;;;;;8.28;100.00;96535.09;5052254;28;20683;-67
2021/11/07 02:27:10;;;;;;;1999.90;999.90;;;;;;;8.21;100.00;96530.16;5051914;28;20208;-67
2021/11/07 02:29:38;;;;;;;1999.90;999.90;;;;;;;8.14;100.00;96528.81;5051669;28;20207;-67
2021/11/07 02:32:07;;;;;;;1999.90;999.90;;;;;;;8.17;100.00;96528.28;5051502;28;20193;-67
2021/11/07 02:34:35;;;;;;;1999.90;999.90;;;;;;;8.15;100.00;96522.59;5051473;28;20217;-67
2021/11/07 02:37:03;;;;;;;1999.90;999.90;;;;;;;8.16;100.00;96524.16;5051547;28;20236;-67
2021/11/07 02:39:32;;;;;;;1999.90;999.90;;;;;;;8.20;100.00;96517.44;5051475;28;20196;-67
2021/11/07 02:41:59;;;;;;;1999.90;999.90;;;;;;;8.13;100.00;96515.06;5051839;28;20203;-67
2021/11/07 02:44:29;;;;;;;1999.90;999.90;;;;;;;8.14;100.00;96513.28;5051659;28;20251;-67
2021/11/07 02:46:57;;;;;;;1999.90;999.90;;;;;;;8.19;100.00;96518.47;5052035;28;20712;-67
2021/11/07 02:49:25;;;;;;;1999.90;999.90;;;;;;;8.27;100.00;96517.97;5051720;28;20221;-67
2021/11/07 02:51:52;;;;;;;1999.90;999.90;;;;;;;8.25;100.00;96519.28;5051508;28;20664;-67
2021/11/07 02:54:19;;;;;;;1999.90;999.90;;;;;;;8.23;100.00;96516.94;5051185;28;20201;-67
2021/11/07 02:56:50;;;;;;;1999.90;999.90;;;;;;;8.23;100.00;96529.88;5051262;28;20278;-67
2021/11/07 02:59:20;;;;;;;1999.90;999.90;;;;;;;8.18;100.00;96524.69;5051260;28;20209;-67
2021/11/07 03:01:47;;;;;;;1999.90;999.90;;;;;;;8.19;100.00;96534.00;5059749;28;20205;-67
2021/11/07 03:04:14;;;;;;;1999.90;999.90;;;;;;;8.15;100.00;96525.19;5067983;28;20228;-67
2021/11/07 03:06:43;;;;;;;1999.90;999.90;;;;;;;8.12;100.00;96525.69;5051008;28;20184;-67
2021/11/07 03:09:13;;;;;;;1999.90;999.90;;;;;;;8.13;100.00;96519.47;5050858;28;20632;-67
2021/11/07 03:11:42;;;;;;;1999.90;999.90;;;;;;;8.11;100.00;96524.94;5051305;28;20221;-67
2021/11/07 03:14:11;;;;;;;1999.90;999.90;;;;;;;8.15;100.00;96525.19;5051101;28;20205;-67
2021/11/07 03:16:38;;;;;;;1999.90;999.90;;;;;;;8.18;100.00;96530.63;5050743;28;20270;-67
2021/11/07 03:19:05;;;;;;;1999.90;999.90;;;;;;;8.15;100.00;96531.16;5050987;28;20236;-67
2021/11/07 03:21:33;;;;;;;1999.90;999.90;;;;;;;8.18;100.00;96535.03;5050914;28;20205;-67
2021/11/07 03:24:00;;;;;;;1999.90;999.90;;;;;;;8.20;100.00;96532.97;5050778;28;20251;-67
2021/11/07 03:26:29;;;;;;;1999.90;999.90;;;;;;;8.19;100.00;96531.41;5050920;28;20259;-67
2021/11/07 03:28:59;;;;;;;1999.90;999.90;;;;;;;8.23;100.00;96528.06;5050835;28;20205;-69
2021/11/07 03:31:36;;;;;;;1999.90;999.90;;;;;;;8.29;100.00;96535.88;5050817;28;20189;-68
2021/11/07 03:34:05;;;;;;;1999.90;999.90;;;;;;;8.28;100.00;96534.31;5050799;28;20185;-68
2021/11/07 03:36:44;;;;;;;1999.90;999.90;;;;;;;8.19;100.00;96536.59;5050276;28;20283;-68
2021/11/07 03:39:11;;;;;;;1999.90;999.90;;;;;;;8.26;100.00;96531.19;5050419;28;20246;-68
2021/11/07 03:41:39;;;;;;;1999.90;999.90;;;;;;;8.29;100.00;96534.06;5050581;28;20202;-68
2021/11/07 03:44:06;;;;;;;1999.90;999.90;;;;;;;8.34;100.00;96534.09;5050714;28;20204;-68
2021/11/07 03:46:35;;;;;;;1999.90;999.90;;;;;;;8.35;100.00;96538.25;5050167;28;20263;-68
2021/11/07 03:49:04;;;;;;;1999.90;999.90;;;;;;;8.35;100.00;96534.88;5050473;28;20208;-68
2021/11/07 03:51:32;;;;;;;1999.90;999.90;;;;;;;8.35;100.00;96535.66;5050583;28;20193;-68
2021/11/07 03:53:59;;;;;;;1999.90;999.90;;;;;;;8.38;100.00;96535.16;5050069;28;20292;-68
2021/11/07 03:56:27;;;;;;;1999.90;999.90;;;;;;;8.31;100.00;96526.84;5050180;28;20621;-68
2021/11/07 03:58:54;;;;;;;1999.90;999.90;;;;;;;8.39;100.00;96521.19;5050032;28;20208;-68
2021/11/07 04:01:22;;;;;;;1999.90;999.90;;;;;;;8.32;100.00;96519.88;5055527;28;20199;-68
2021/11/07 04:03:50;;;;;;;1999.90;999.90;;;;;;;8.36;100.00;96515.72;5070118;28;20224;-68
2021/11/07 04:06:17;;;;;;;1999.90;999.90;;;;;;;8.38;100.00;96519.63;5050397;28;20200;-68
2021/11/07 04:08:45;;;;;;;1999.90;999.90;;;;;;;8.37;100.00;96520.63;5050336;28;20223;-68
2021/11/07 04:11:13;;;;;;;1999.90;999.90;;;;;;;8.26;100.00;96523.44;5049905;28;20200;-68
2021/11/07 04:13:40;;;;;;;1999.90;999.90;;;;;;;8.15;100.00;96517.44;5050118;28;20593;-68
2021/11/07 04:16:10;;;;;;;1999.90;999.90;;;;;;;8.13;100.00;96516.88;5049992;28;20732;-68
2021/11/07 04:18:38;;;;;;;1999.90;999.90;;;;;;;8.03;100.00;96522.00;5051210;28;20193;-69
2021/11/07 04:21:06;;;;;;;1999.90;999.90;;;;;;;8.07;100.00;96538.63;5052148;28;20201;-68
2021/11/07 04:23:34;;;;;;;1999.90;999.90;;;;;;;8.09;100.00;96536.53;5054320;28;20637;-68
2021/11/07 04:26:02;;;;;;;1999.90;999.90;;;;;;;8.20;100.00;96538.94;5053985;28;20193;-68
2021/11/07 04:28:29;;;;;;;1999.90;999.90;;;;;;;8.16;100.00;96537.13;5053961;28;20197;-68
2021/11/07 04:30:56;;;;;;;1999.90;999.90;;;;;;;8.02;100.00;96546.38;5054173;28;20220;-68
2021/11/07 04:33:24;;;;;;;1999.90;999.90;;;;;;;8.11;100.00;96547.44;5053873;28;20197;-68
2021/11/07 04:35:51;;;;;;;1999.90;999.90;;;;;;;8.17;100.00;96529.06;5054001;28;20229;-69
2021/11/07 04:38:20;;;;;;;1999.90;999.90;;;;;;;8.20;100.00;96513.06;5053701;28;20215;-68
2021/11/07 04:40:47;;;;;;;1999.90;999.90;;;;;;;8.23;100.00;96506.56;5053972;28;20258;-68
2021/11/07 04:43:14;;;;;;;1999.90;999.90;;;;;;;8.26;100.00;96500.91;5053636;28;20197;-68
2021/11/07 04:45:42;;;;;;;1999.90;999.90;;;;;;;8.30;100.00;96503.78;5053811;28;20746;-69
2021/11/07 04:48:09;;;;;;;1999.90;999.90;;;;;;;8.32;100.00;96499.91;5053464;28;20201;-68
2021/11/07 04:50:37;;;;;;;1999.90;999.90;;;;;;;8.36;100.00;96493.22;5053537;28;20201;-69
2021/11/07 04:53:05;;;;;;;1999.90;999.90;;;;;;;8.42;100.00;96489.56;5053633;28;20193;-68
2021/11/07 04:55:36;;;;;;;1999.90;999.90;;;;;;;8.36;100.00;96493.22;5053311;28;20693;-68
2021/11/07 04:58:03;;;;;;;1999.90;999.90;;;;;;;8.26;100.00;96516.44;5053456;28;20200;-68
2021/11/07 05:00:31;;;;;;;1999.90;999.90;;;;;;;8.35;100.00;96529.72;5053437;28;20197;-68
2021/11/07 05:02:58;;;;;;;1999.90;999.90;;;;;;;8.47;100.00;96528.44;5071733;28;20196;-68
2021/11/07 05:05:25;;;;;;;1999.90;999.90;;;;;;;8.36;100.00;96513.16;5060368;28;20229;-68
2021/11/07 05:07:53;;;;;;;1999.90;999.90;;;;;;;8.42;100.00;96506.97;5053231;28;20212;-68
2021/11/07 05:10:20;;;;;;;1999.90;999.90;;;;;;;8.39;100.00;96508.22;5053189;28;20608;-68
2021/11/07 05:12:50;;;;;;;1999.90;999.90;;;;;;;8.44;100.00;96503.06;5053320;28;20629;-68
2021/11/07 05:15:17;;;;;;;1999.90;999.90;;;;;;;8.46;100.00;96508.00;5053096;28;20259;-68
2021/11/07 05:17:45;;;;;;;1999.90;999.90;;;;;;;8.40;100.00;96514.97;5053292;28;20200;-68
2021/11/07 05:20:13;;;;;;;1999.90;999.90;;;;;;;8.42;100.00;96510.31;5052969;28;20201;-68
2021/11/07 05:22:41;;;;;;;1999.90;999.90;;;;;;;8.43;100.00;96508.50;5053256;28;20284;-68
2021/11/07 05:25:10;;;;;;;1999.90;999.90;;;;;;;8.34;100.00;96512.59;5053032;28;20205;-68
2021/11/07 05:27:37;;;;;;;1999.90;999.90;;;;;;;8.36;100.00;96524.28;5053165;28;20760;-68
2021/11/07 05:30:09;;;;;;;1999.90;999.90;;;;;;;8.43;100.00;96527.41;5052506;28;20201;-68
2021/11/07 05:32:36;;;;;;;1999.90;999.90;;;;;;;8.40;100.00;96525.34;5053123;28;20595;-68
2021/11/07 05:35:03;;;;;;;1999.90;999.90;;;;;;;8.44;100.00;96528.97;5052898;28;20201;-68
2021/11/07 05:37:30;;;;;;;1999.90;999.90;;;;;;;8.47;100.00;96528.44;5052375;28;20697;-68
2021/11/07 05:39:57;;;;;;;1999.90;999.90;;;;;;;8.60;100.00;96525.41;5052701;28;20262;-68
2021/11/07 05:42:24;;;;;;;1999.90;999.90;;;;;;;8.58;100.00;96514.50;5052268;28;20205;-68
2021/11/07 05:44:51;;;;;;;1999.90;999.90;;;;;;;8.60;100.00;96527.22;5052270;28;20201;-68
2021/11/07 05:47:20;;;;;;;1999.90;999.90;;;;;;;8.59;100.00;96523.84;5052450;28;20200;-68
2021/11/07 05:49:47;;;;;;;1999.90;999.90;;;;;;;8.69;100.00;96530.84;5052603;28;20201;-68
2021/11/07 05:52:14;;;;;;;1999.90;999.90;;;;;;;8.73;100.00;96525.94;5052473;28;20193;-68
2021/11/07 05:54:41;;;;;;;1999.90;999.90;;;;;;;8.81;100.00;96522.88;5052190;28;20247;-68
2021/11/07 05:57:08;;;;;;;1999.90;999.90;;;;;;;8.91;100.00;96522.88;5052585;28;20217;-68
2021/11/07 05:59:35;;;;;;;1999.90;999.90;;;;;;;8.98;100.00;96526.00;5052383;28;20197;-68
2021/11/07 06:02:02;;;;;;;1999.90;999.90;;;;;;;8.99;100.00;96530.94;5062878;28;20208;-68
2021/11/07 06:04:31;;;;;;;1999.90;999.90;;;;;;;9.06;100.00;96531.47;5066687;28;20762;-68
2021/11/07 06:06:58;;;;;;;1999.90;999.90;;;;;;;9.12;100.00;96534.81;5052323;28;20254;-68
2021/11/07 06:09:25;;;;;;;1999.90;999.90;;;;;;;9.28;100.00;96530.44;5052174;28;20204;-68
2021/11/07 06:11:52;;;;;;;1999.90;999.90;;;;;;;9.30;100.00;96546.53;5052083;28;20204;-68
2021/11/07 06:14:19;;;;;;;1999.90;999.90;;;;;;;9.45;100.00;96542.13;5051909;28;20196;-68
2021/11/07 06:16:46;;;;;;;1999.90;999.90;;;;;;;9.59;100.00;96544.19;5051682;28;20286;-68
2021/11/07 06:19:13;;;;;;;1999.90;999.90;;;;;;;9.74;100.00;96547.53;5051998;28;20203;-68
2021/11/07 06:21:42;;;;;;;1999.90;999.90;;;;;;;9.84;100.00;96551.94;5051750;28;20205;-68
2021/11/07 06:24:12;;;;;;;1999.90;999.90;;;;;;;9.92;100.00;96554.78;5051794;28;20673;-68
2021/11/07 06:26:39;;;;;;;1999.90;999.90;;;;;;;9.92;100.00;96554.00;5051233;28;20224;-68
2021/11/07 06:29:06;;;;;;;1999.90;999.90;;;;;;;9.96;100.00;96554.28;5051805;28;20201;-68
2021/11/07 06:31:33;;;;;;;1999.90;999.90;;;;;;;10.14;100.00;96546.69;5051763;28;20204;-68
2021/11/07 06:34:01;;;;;;;1999.90;999.90;;;;;;;10.17;100.00;96546.19;5051503;28;20673;-68
2021/11/07 06:36:28;;;;;;;1999.90;999.90;;;;;;;10.31;100.00;96560.16;5051662;28;20275;-69
2021/11/07 06:38:57;;;;;;;1999.90;999.90;;;;;;;10.40;100.00;96551.84;5051436;28;20193;-68
2021/11/07 06:41:25;;;;;;;1999.90;999.90;;;;;;;10.42;100.00;96557.53;5050635;28;20203;-69
2021/11/07 06:43:54;;;;;;;1999.90;999.90;;;;;;;10.49;100.00;96552.84;5051229;28;20232;-69
2021/11/07 06:46:22;;;;;;;1999.90;999.90;;;;;;;10.63;100.00;96561.63;5051583;28;20189;-69
2021/11/07 06:48:49;;;;;;;1999.90;999.90;;;;;;;10.74;100.00;96550.91;5051173;28;20197;-69
2021/11/07 06:51:17;;;;;;;1999.90;999.90;;;;;;;11.00;100.00;96546.38;5051202;28;20198;-69
2021/11/07 06:53:45;;;;;;;1999.90;999.90;;;;;;;11.20;100.00;96551.44;5051236;28;20224;-69
2021/11/07 06:56:13;;;;;;;1999.90;999.90;;;;;;;11.30;100.00;96562.81;5051053;28;20643;-68
2021/11/07 06:58:41;;;;;;;1999.90;999.90;;;;;;;11.25;100.00;96557.66;5051230;28;20197;-69
2021/11/07 07:01:08;;;;;;;1999.90;999.90;;;;;;;11.31;100.00;96559.19;5054291;28;20404;-69
2021/11/07 07:03:35;;;;;;;1999.90;999.90;;;;;;;11.33;100.00;96555.25;5070588;28;20196;-69
2021/11/07 07:06:03;;;;;;;1999.90;999.90;;;;;;;11.33;100.00;96562.25;5053071;28;20259;-69
2021/11/07 07:08:39;;;;;;;1999.90;999.90;;;;;;;11.44;100.00;96561.16;5050870;28;20197;-69
2021/11/07 07:11:10;;;;;;;1999.90;999.90;;;;;;;11.66;100.00;96564.09;5050774;28;20222;-69
2021/11/07 07:13:44;;;;;;;1999.90;999.90;;;;;;;11.70;100.00;96562.50;5050669;28;20189;-69
2021/11/07 07:16:21;;;;;;;1999.90;999.90;;;;;;;11.72;100.00;96570.03;5051121;28;20205;-68
2021/11/07 07:18:58;;;;;;;1999.90;999.90;;;;;;;11.74;100.00;96558.34;5050574;28;20243;-68
2021/11/07 07:21:37;;;;;;;1999.90;999.90;;;;;;;11.94;100.00;96558.16;5050676;28;20576;-68
2021/11/07 07:29:39;;;;;;;1999.90;999.90;;;;;;;12.07;100.00;96556.72;5050556;28;20557;-68
2021/11/07 07:32:23;;;;;;;1999.90;999.90;;;;;;;12.25;100.00;96545.59;5050465;28;20181;-68
2021/11/07 07:34:53;;;;;;;1999.90;999.90;;;;;;;12.46;100.00;96543.50;5050382;28;20189;-68
2021/11/07 07:37:20;;;;;;;1999.90;999.90;;;;;;;12.59;100.00;96545.47;5050293;28;20264;-68
2021/11/07 07:39:48;;;;;;;1999.90;999.90;;;;;;;12.67;100.00;96539.59;5050641;28;20205;-68
2021/11/07 07:42:15;;;;;;;1999.90;999.90;;;;;;;12.76;100.00;96543.13;5050433;28;20197;-68
2021/11/07 07:44:48;;;;;;;1999.90;999.90;;;;;;;12.86;100.00;96535.19;5050531;28;20259;-68
2021/11/07 07:47:16;;;;;;;1999.90;999.90;;;;;;;13.06;100.00;96546.38;5050477;28;20203;-68
2021/11/07 07:49:43;;;;;;;1999.90;999.90;;;;;;;13.23;100.00;96546.72;5050056;28;20235;-68
2021/11/07 07:52:11;;;;;;;1999.90;999.90;;;;;;;13.26;100.00;96551.34;5050211;28;20213;-68
2021/11/07 07:54:38;;;;;;;1999.90;999.90;;;;;;;13.23;100.00;96547.50;5050454;28;20201;-68
2021/11/07 07:57:06;;;;;;;1999.90;999.90;;;;;;;13.42;100.00;96544.84;5049859;28;20225;-68
2021/11/07 07:59:33;;;;;;;1999.90;999.90;;;;;;;13.45;100.00;96549.50;5050247;28;20252;-68
2021/11/07 08:02:02;;;;;;;1999.90;999.90;;;;;;;13.64;100.00;96536.41;5060498;28;20215;-68
2021/11/07 08:04:29;;;;;;;1999.90;999.90;;;;;;;13.84;100.00;96541.31;5064986;28;20261;-69
2021/11/07 08:06:56;;;;;;;1999.90;999.90;;;;;;;14.03;100.00;96528.16;5050137;28;20254;-68
2021/11/07 08:09:23;;;;;;;1999.90;999.90;;;;;;;14.09;100.00;96537.47;5049899;28;20201;-68
2021/11/07 08:11:50;;;;;;;1999.90;999.90;;;;;;;14.17;100.00;96534.16;5050140;28;20225;-68
2021/11/07 08:14:18;;;;;;;1999.90;999.90;;;;;;;14.09;100.00;96535.63;5050163;28;20629;-69
2021/11/07 08:16:45;;;;;;;1999.90;999.90;;;;;;;13.92;100.00;96547.69;5049622;28;20599;-69
2021/11/07 08:19:14;;;;;;;1999.90;999.90;;;;;;;13.94;100.00;96554.19;5049827;28;20620;-68
2021/11/07 08:21:42;;;;;;;1999.90;999.90;;;;;;;14.10;100.00;96552.06;5049713;28;20208;-69
2021/11/07 08:24:12;;;;;;;1999.90;999.90;;;;;;;14.27;100.00;96549.66;5049740;28;20201;-69
2021/11/07 08:26:42;;;;;;;1999.90;999.90;;;;;;;14.35;100.00;96545.59;5050000;28;20284;-68
2021/11/07 08:29:11;;;;;;;1999.90;999.90;;;;;;;14.54;100.00;96544.47;5049908;28;20255;-68
2021/11/07 08:31:39;;;;;;;1999.90;999.90;;;;;;;14.79;100.00;96524.09;5049698;28;20700;-68
2021/11/07 08:34:08;;;;;;;1999.90;999.90;;;;;;;14.99;100.00;96513.16;5049940;28;20205;-69
2021/11/07 08:36:40;;;;;;;1999.90;999.90;;;;;;;14.96;100.00;96498.03;5049921;28;20228;-68
2021/11/07 08:39:13;;;;;;;1999.90;999.90;;;;;;;14.98;100.00;96485.44;5049756;28;20268;-68
2021/11/07 08:41:46;;;;;;;1999.90;999.90;;;;;;;15.14;100.00;96494.50;5049649;28;20185;-68
2021/11/07 09:00:45;;;;;;;1999.90;999.90;;;;;;;15.88;100.00;96455.47;5049596;28;20208;-69
2021/11/07 09:03:28;;;;;;;1999.90;999.90;;;;;;;16.02;100.00;96461.38;5029948;28;20224;-68
2021/11/07 09:06:02;;;;;;;1999.90;999.90;;;;;;;16.21;99.31;96446.16;5049710;28;20231;-68
2021/11/07 09:08:30;;;;;;;1999.90;999.90;;;;;;;16.17;99.39;96439.22;5053585;28;20673;-68
2021/11/07 09:10:59;;;;;;;1999.90;999.90;;;;;;;16.21;98.79;96448.00;5053448;28;20957;-68
2021/11/07 09:13:26;;;;;;;1999.90;999.90;;;;;;;16.22;97.76;96449.56;5053059;28;20193;-69
2021/11/07 09:15:53;;;;;;;1999.90;999.90;;;;;;;16.19;98.13;96450.94;5053055;28;20267;-69
2021/11/07 09:18:20;;;;;;;1999.90;999.90;;;;;;;16.08;97.93;96449.69;5052878;28;20311;-68
2021/11/07 09:20:52;;;;;;;1999.90;999.90;;;;;;;16.04;97.68;96443.47;5052882;28;20677;-68
2021/11/07 09:23:24;;;;;;;1999.90;999.90;;;;;;;16.19;97.04;96450.94;5053150;28;20182;-68
2021/11/07 09:26:06;;;;;;;1999.90;999.90;;;;;;;16.13;96.38;96444.31;5052920;28;20186;-69
2021/11/07 09:28:37;;;;;;;1999.90;999.90;;;;;;;16.21;97.06;96448.00;5053078;28;20213;-69
2021/11/07 09:31:11;;;;;;;1999.90;999.90;;;;;;;16.28;97.51;96449.13;5053137;28;20189;-68
2021/11/07 09:33:47;;;;;;;1999.90;999.90;;;;;;;16.49;96.84;96446.66;5052974;28;20248;-69
2021/11/07 09:36:19;;;;;;;1999.90;999.90;;;;;;;16.66;95.70;96438.06;5052626;28;20246;-68
2021/11/07 09:38:50;;;;;;;1999.90;999.90;;;;;;;16.91;94.67;96426.81;5052912;28;20576;-69
2021/11/07 09:41:28;;;;;;;1999.90;999.90;;;;;;;16.93;93.09;96429.91;5052560;28;20193;-68
2021/11/07 09:43:58;;;;;;;1999.90;999.90;;;;;;;16.95;91.81;96427.72;5052363;28;20722;-69
2021/11/07 09:46:38;;;;;;;1999.90;999.90;;;;;;;16.97;92.97;96417.69;5053025;28;20193;-69
2021/11/07 09:49:16;;;;;;;1999.90;999.90;;;;;;;17.15;92.33;96413.94;5052381;28;20193;-69
2021/11/07 09:51:47;;;;;;;1999.90;999.90;;;;;;;17.41;93.19;96407.84;5052597;28;20193;-69
2021/11/07 09:54:17;;;;;;;1999.90;999.90;;;;;;;17.50;91.04;96413.84;5052527;28;20193;-69
2021/11/07 09:56:49;;;;;;;1999.90;999.90;;;;;;;17.68;90.08;96410.13;5052076;28;20203;-68
2021/11/07 09:59:16;;;;;;;1999.90;999.90;;;;;;;17.66;91.78;96404.41;5052147;28;20225;-68
2021/11/07 10:01:44;;;;;;;1999.90;999.90;;;;;;;17.64;92.68;96399.44;5059974;28;20196;-68
2021/11/07 10:04:11;;;;;;;1999.90;999.90;;;;;;;17.82;90.43;96392.28;5069435;28;20236;-69
2021/11/07 10:06:44;;;;;;;1999.90;999.90;;;;;;;17.99;88.46;96379.00;5052312;28;20201;-69
2021/11/07 10:09:12;;;;;;;1999.90;999.90;;;;;;;17.93;89.45;96374.28;5051852;28;20185;-69
2021/11/07 10:12:02;;;;;;;1999.90;999.90;;;;;;;18.04;88.66;96370.94;5051856;28;20197;-68
2021/11/07 10:14:42;;;;;;;1999.90;999.90;;;;;;;18.18;89.60;96359.41;5051796;28;20193;-69
2021/11/07 10:17:35;;;;;;;1999.90;999.90;;;;;;;18.44;87.84;96362.59;5050585;28;20217;-69
2021/11/07 10:20:17;;;;;;;1999.90;999.90;;;;;;;18.58;85.80;96362.41;5052034;28;20572;-69
2021/11/07 10:22:48;;;;;;;1999.90;999.90;;;;;;;18.66;84.42;96353.63;5051932;28;20192;-69
2021/11/07 10:25:19;;;;;;;1999.90;999.90;;;;;;;18.68;83.65;96346.94;5051696;28;20193;-69
2021/11/07 10:27:50;;;;;;;1999.90;999.90;;;;;;;18.63;84.81;96344.50;5051621;28;20269;-69
2021/11/07 10:30:21;;;;;;;1999.90;999.90;;;;;;;18.64;85.65;96332.88;5051054;28;20569;-69
2021/11/07 10:33:02;;;;;;;1999.90;999.90;;;;;;;18.63;84.12;96333.97;5051710;28;20233;-69
2021/11/07 10:41:30;;;;;;;1999.90;999.90;;;;;;;18.68;83.85;96315.34;5048215;28;20287;-68
2021/11/07 10:44:21;;;;;;;1999.90;999.90;;;;;;;18.73;84.04;96314.41;5051327;28;20263;-68
2021/11/07 10:47:11;;;;;;;1999.90;999.90;;;;;;;18.70;84.42;96307.91;5051439;28;20679;-68
2021/11/07 10:52:30;;;;;;;1999.90;999.90;;;;;;;18.74;83.87;96292.97;5033830;28;20205;-69
2021/11/07 10:54:58;;;;;;;1999.90;999.90;;;;;;;18.36;86.42;96287.91;5051419;28;20287;-68
2021/11/07 10:57:28;;;;;;;1999.90;999.90;;;;;;;18.65;83.63;96276.50;5051152;28;20232;-69
2021/11/07 11:00:17;;;;;;;1999.90;999.90;;;;;;;18.61;83.63;96272.22;5051340;28;20243;-69
2021/11/07 11:02:45;;;;;;;1999.90;999.90;;;;;;;18.64;83.46;96274.19;5067436;28;20232;-69
2021/11/07 11:05:15;;;;;;;1999.90;999.90;;;;;;;18.84;83.94;96270.72;5059703;28;20286;-69
2021/11/07 11:07:53;;;;;;;1999.90;999.90;;;;;;;18.79;82.91;96266.44;5051371;28;20200;-69
2021/11/07 11:10:27;;;;;;;1999.90;999.90;;;;;;;18.69;82.92;96258.19;5050697;28;20300;-69
2021/11/07 11:13:13;;;;;;;1999.90;999.90;;;;;;;18.81;83.84;96253.72;5050853;28;20656;-68
2021/11/07 11:15:53;;;;;;;1999.90;999.90;;;;;;;18.97;83.66;96242.56;5050578;28;20189;-68
2021/11/07 11:18:31;;;;;;;1999.90;999.90;;;;;;;18.96;83.87;96254.19;5050620;28;20210;-69
2021/11/07 11:24:14;;;;;;;1999.90;999.90;;;;;;;18.91;83.73;96237.50;4950544;29;20184;-68
2021/11/07 11:27:04;;;;;;;1999.90;999.90;;;;;;;18.98;82.44;96238.84;4950227;28;20196;-69
2021/11/07 11:32:30;;;;;;;1999.90;999.90;;;;;;;18.93;83.96;96229.25;4931148;29;20200;-68
2021/11/07 11:35:02;;;;;;;1999.90;999.90;;;;;;;18.94;83.13;96225.53;4950123;29;20254;-69
2021/11/07 11:37:37;;;;;;;1999.90;999.90;;;;;;;18.54;84.71;96221.94;4949647;28;20208;-69
2021/11/07 11:40:10;;;;;;;1999.90;999.90;;;;;;;18.39;85.74;96218.03;4952972;28;20598;-69
2021/11/07 11:42:43;;;;;;;1999.90;999.90;;;;;;;18.31;85.84;96211.00;4950096;29;20688;-69
2021/11/07 11:45:11;;;;;;;1999.90;999.90;;;;;;;18.32;85.05;96208.06;4965485;28;20275;-68